Time;durP1;ratioP1;P1;durP2;ratioP2;P2;SDS_P1;SDS_P2;PMS_P1;PMS_P2;Temp;Humidity;BMP_temperature;BMP_pressure;BME280_temperature;BME280_humidity;BME280_pressure;Samples;Min_cycle;Max_cycle;Signal;HPM_P1;HPM_P2
2021/08/07 00:00:20;;;;;;;1.10;1.00;;;;;;;24.09;38.55;93461.31;4981482;28;20037;-75
2021/08/07 00:02:45;;;;;;;0.80;0.80;;;;;;;24.08;38.66;93459.78;4982018;28;20297;-76
2021/08/07 00:05:11;;;;;;;1.33;1.10;;;;;;;24.06;38.63;93456.66;4986614;28;20050;-76
2021/08/07 00:07:37;;;;;;;3.22;1.25;;;;;;;23.97;38.90;93458.94;4982746;28;20141;-77
2021/08/07 00:10:04;;;;;;;1.85;1.05;;;;;;;23.97;38.48;93437.34;4985790;28;20036;-76
2021/08/07 00:12:30;;;;;;;2.25;1.10;;;;;;;24.28;38.93;93463.72;4984018;28;20030;-77
2021/08/07 00:14:55;;;;;;;1.58;0.80;;;;;;;24.33;38.24;93465.25;4986544;28;20441;-77
2021/08/07 00:17:21;;;;;;;1.00;0.90;;;;;;;24.23;38.33;93460.59;4987589;28;20435;-77
2021/08/07 00:19:46;;;;;;;1.42;1.33;;;;;;;24.13;38.48;93467.50;4983979;28;20033;-76
2021/08/07 00:22:15;;;;;;;3.10;1.30;;;;;;;23.99;38.82;93464.75;4984627;28;20117;-74
2021/08/07 00:24:40;;;;;;;1.40;0.90;;;;;;;23.89;39.02;93462.78;4984607;28;20409;-76
2021/08/07 00:27:06;;;;;;;1.42;1.10;;;;;;;23.96;38.93;93462.78;4986891;28;20053;-77
2021/08/07 00:29:35;;;;;;;1.90;1.40;;;;;;;23.96;39.14;93468.19;4984260;28;20049;-77
2021/08/07 00:32:01;;;;;;;3.58;1.30;;;;;;;23.57;38.81;93397.91;4986989;28;20132;-76
2021/08/07 00:34:26;;;;;;;3.25;1.27;;;;;;;24.18;38.65;93469.84;4985909;28;20488;-76
2021/08/07 00:36:52;;;;;;;1.88;0.77;;;;;;;24.17;38.76;93468.31;4990719;28;20042;-76
2021/08/07 00:39:17;;;;;;;1.60;0.95;;;;;;;24.29;38.74;93476.03;4991360;28;20038;-76
2021/08/07 00:41:43;;;;;;;2.00;1.00;;;;;;;24.27;38.50;93478.38;4988861;28;20461;-76
2021/08/07 00:44:08;;;;;;;1.02;0.93;;;;;;;24.12;38.69;93472.13;4991614;28;20046;-78
2021/08/07 00:46:34;;;;;;;1.20;1.10;;;;;;;24.23;38.84;93483.00;4989878;28;20022;-76
2021/08/07 00:48:59;;;;;;;1.10;1.00;;;;;;;24.30;39.21;93483.00;4990020;28;20044;-77
2021/08/07 00:51:24;;;;;;;2.78;1.20;;;;;;;24.26;38.88;93478.72;4989079;28;20119;-77
2021/08/07 00:53:50;;;;;;;2.15;0.90;;;;;;;24.28;39.03;93485.31;4989956;28;20045;-77
2021/08/07 00:56:15;;;;;;;1.77;1.10;;;;;;;24.16;38.80;93469.44;4990007;28;20085;-76
2021/08/07 00:58:40;;;;;;;1.55;1.05;;;;;;;23.91;39.47;93466.63;4988393;28;20030;-75
2021/08/07 01:01:13;;;;;;;2.33;1.08;;;;;;;24.14;39.38;93469.06;4991442;28;20469;-75
2021/08/07 01:03:47;;;;;;;2.60;1.17;;;;;;;24.30;38.81;93466.00;4987552;28;20033;-77
2021/08/07 01:06:53;;;;;;;1.83;1.00;;;;;;;24.22;38.99;93470.63;4989626;28;20579;-76
2021/08/07 01:09:36;;;;;;;2.75;1.25;;;;;;;24.02;39.29;93450.50;4987607;28;20044;-77
2021/08/07 01:12:09;;;;;;;1.70;1.08;;;;;;;24.16;39.45;93458.63;4988751;28;20840;-77
2021/08/07 01:14:42;;;;;;;2.78;1.88;;;;;;;24.26;39.10;93463.31;4989917;28;20404;-77
2021/08/07 01:17:12;;;;;;;3.22;1.30;;;;;;;24.27;38.96;93456.75;4989422;28;20052;-76
2021/08/07 01:19:56;;;;;;;1.15;1.00;;;;;;;24.11;39.09;93450.91;4986039;28;20038;-76
2021/08/07 01:22:31;;;;;;;2.15;1.13;;;;;;;24.12;39.39;93471.34;4988543;28;20034;-77
2021/08/07 01:25:01;;;;;;;1.63;1.00;;;;;;;24.24;39.01;93475.66;4986387;28;20038;-76
2021/08/07 01:27:32;;;;;;;2.08;1.20;;;;;;;24.17;39.12;93468.31;4985448;28;20568;-76
2021/08/07 01:29:59;;;;;;;1.15;1.05;;;;;;;24.08;39.57;93470.56;4986573;28;20145;-76
2021/08/07 01:32:31;;;;;;;2.60;1.55;;;;;;;23.93;39.35;93468.97;4986884;28;20038;-74
2021/08/07 01:34:59;;;;;;;1.73;1.15;;;;;;;23.77;39.87;93471.19;4985502;28;20041;-76
2021/08/07 01:37:24;;;;;;;1.85;1.23;;;;;;;23.54;39.98;93426.41;4987889;28;20938;-76
2021/08/07 01:39:53;;;;;;;2.20;1.02;;;;;;;23.94;39.65;93465.13;4985977;28;20104;-76
2021/08/07 01:42:18;;;;;;;1.40;1.00;;;;;;;23.84;39.56;93469.31;4987029;28;20043;-76
2021/08/07 01:44:44;;;;;;;1.27;1.17;;;;;;;23.77;39.59;93455.78;4985510;28;20092;-76
2021/08/07 01:47:21;;;;;;;1.17;1.02;;;;;;;23.73;39.70;93471.97;4988011;28;20351;-77
2021/08/07 01:50:04;;;;;;;1.88;1.20;;;;;;;23.66;39.63;93460.34;4986349;28;20415;-77
2021/08/07 01:52:34;;;;;;;3.00;1.30;;;;;;;23.60;39.66;93472.69;4986739;28;20412;-77
2021/08/07 01:55:09;;;;;;;1.45;0.95;;;;;;;23.51;39.37;93451.41;4984555;28;20101;-75
2021/08/07 01:57:40;;;;;;;1.10;1.00;;;;;;;23.44;39.87;93469.47;4988185;28;21983;-77
2021/08/07 02:00:07;;;;;;;1.13;1.00;;;;;;;23.29;39.77;93463.22;4986573;28;20038;-76
2021/08/07 02:02:33;;;;;;;1.13;0.98;;;;;;;23.27;39.89;93466.28;4988927;28;20575;-75
2021/08/07 02:05:00;;;;;;;1.52;0.90;;;;;;;23.24;39.95;93466.28;4983482;28;20052;-76
2021/08/07 02:07:27;;;;;;;1.20;1.10;;;;;;;23.25;40.03;93467.81;4989117;28;20041;-76
2021/08/07 02:09:54;;;;;;;1.60;1.00;;;;;;;23.21;39.86;93467.78;4986128;28;20046;-76
2021/08/07 02:12:20;;;;;;;3.47;1.30;;;;;;;23.29;40.19;93469.38;4986950;28;20058;-77
2021/08/07 02:14:45;;;;;;;1.60;0.98;;;;;;;23.49;40.02;93469.94;4986752;28;20046;-77
2021/08/07 02:17:11;;;;;;;1.38;1.20;;;;;;;23.52;39.64;93474.56;4987088;28;20049;-76
2021/08/07 02:19:37;;;;;;;1.88;1.00;;;;;;;23.61;39.73;93480.38;4985887;28;20378;-76
2021/08/07 02:22:03;;;;;;;3.22;1.10;;;;;;;23.70;39.36;93472.72;4989298;28;20030;-76
2021/08/07 02:24:29;;;;;;;2.22;1.10;;;;;;;23.71;39.16;93482.34;4987033;28;20519;-74
2021/08/07 02:26:56;;;;;;;1.10;1.00;;;;;;;23.87;39.20;93483.97;4987429;28;20050;-75
2021/08/07 02:29:23;;;;;;;1.73;0.98;;;;;;;24.00;38.31;93468.97;4985617;28;20576;-76
2021/08/07 02:31:50;;;;;;;1.60;1.15;;;;;;;24.26;38.16;93484.13;4988993;28;20500;-76
2021/08/07 02:34:17;;;;;;;1.20;1.10;;;;;;;24.38;37.87;93481.09;4988320;28;20469;-76
2021/08/07 02:36:43;;;;;;;0.90;0.85;;;;;;;24.43;37.64;93492.31;4987534;28;20076;-75
2021/08/07 02:39:10;;;;;;;1.20;0.95;;;;;;;24.48;37.79;93478.38;4987014;28;21005;-77
2021/08/07 02:41:36;;;;;;;1.33;0.90;;;;;;;24.63;37.40;93483.84;4986837;28;20096;-77
2021/08/07 02:44:03;;;;;;;1.15;1.00;;;;;;;24.53;37.90;93469.91;4987821;28;20405;-76
2021/08/07 02:46:29;;;;;;;0.90;0.90;;;;;;;24.65;37.99;93478.81;4987297;28;20050;-75
2021/08/07 02:48:56;;;;;;;1.10;0.95;;;;;;;24.71;37.32;93486.16;4987499;28;20030;-76
2021/08/07 02:51:23;;;;;;;1.10;1.00;;;;;;;24.70;37.79;93476.50;4988717;28;20041;-76
2021/08/07 02:53:49;;;;;;;3.42;1.20;;;;;;;24.68;37.28;93496.97;4988098;28;20022;-78
2021/08/07 02:56:15;;;;;;;2.10;1.10;;;;;;;24.60;37.47;93488.84;4984761;28;20126;-77
2021/08/07 02:58:41;;;;;;;1.10;0.80;;;;;;;24.55;37.59;93486.53;4988008;28;20018;-76
2021/08/07 03:01:07;;;;;;;1.50;1.00;;;;;;;24.43;37.95;93486.91;4987710;28;20026;-76
2021/08/07 03:03:32;;;;;;;2.90;1.17;;;;;;;24.40;38.54;93486.88;4987634;28;20038;-77
2021/08/07 03:05:58;;;;;;;3.53;0.93;;;;;;;24.42;38.44;93490.75;4988577;28;20172;-76
2021/08/07 03:08:23;;;;;;;2.38;1.13;;;;;;;24.36;38.51;93492.28;4986879;28;20070;-77
2021/08/07 03:10:49;;;;;;;1.30;1.10;;;;;;;24.23;38.77;93493.78;4986156;28;20381;-77
2021/08/07 03:13:15;;;;;;;2.55;1.00;;;;;;;24.26;38.75;93493.00;4987796;28;20044;-76
2021/08/07 03:15:40;;;;;;;1.15;1.00;;;;;;;24.40;38.67;93506.56;4989193;28;20038;-76
2021/08/07 03:18:06;;;;;;;1.55;1.05;;;;;;;24.10;38.68;93446.66;4986399;28;20096;-76
2021/08/07 03:20:31;;;;;;;1.73;1.02;;;;;;;24.38;39.93;93500.78;4987968;28;20056;-75
2021/08/07 03:23:03;;;;;;;3.45;1.20;;;;;;;24.37;39.06;93480.31;4985575;28;20072;-77
2021/08/07 03:25:28;;;;;;;2.55;1.05;;;;;;;24.14;39.62;93498.75;4984317;28;20413;-76
2021/08/07 03:27:54;;;;;;;2.85;1.30;;;;;;;24.08;39.62;93501.03;4978544;28;20044;-76
2021/08/07 03:30:20;;;;;;;2.20;0.95;;;;;;;23.94;39.84;93511.00;4975934;28;20054;-76
2021/08/07 03:32:45;;;;;;;1.25;1.08;;;;;;;23.98;40.34;93509.09;4984084;28;20058;-76
2021/08/07 03:35:11;;;;;;;1.40;1.20;;;;;;;24.04;39.82;93507.56;4984163;28;20121;-76
2021/08/07 03:37:37;;;;;;;2.05;1.33;;;;;;;24.03;39.94;93511.41;4985406;28;20187;-76
2021/08/07 03:40:03;;;;;;;2.75;1.10;;;;;;;24.04;39.59;93515.66;4986065;28;20495;-77
2021/08/07 03:42:29;;;;;;;1.50;1.30;;;;;;;24.15;39.60;93519.94;4986003;28;20397;-75
2021/08/07 03:44:55;;;;;;;2.05;1.20;;;;;;;24.05;39.43;93530.69;4975974;28;20034;-76
2021/08/07 03:47:21;;;;;;;2.38;1.25;;;;;;;24.14;39.55;93531.13;4982810;28;20137;-77
2021/08/07 03:49:46;;;;;;;1.30;1.17;;;;;;;24.19;39.43;93536.19;4956846;28;20197;-77
2021/08/07 03:52:12;;;;;;;1.17;1.02;;;;;;;24.15;39.40;93529.97;4984375;28;20057;-76
2021/08/07 03:54:37;;;;;;;1.00;0.90;;;;;;;23.84;39.42;93482.81;4989364;28;20038;-76
2021/08/07 03:57:02;;;;;;;1.27;0.98;;;;;;;24.19;39.76;93532.72;4986021;28;20421;-77
2021/08/07 03:59:28;;;;;;;3.75;1.30;;;;;;;24.30;39.20;93530.81;4987003;28;20036;-77
2021/08/07 04:01:53;;;;;;;1.20;1.10;;;;;;;24.39;39.44;93528.53;4977555;28;20034;-76
2021/08/07 04:04:19;;;;;;;1.48;1.33;;;;;;;24.54;38.98;93530.88;4984621;28;20485;-76
2021/08/07 04:06:44;;;;;;;1.73;1.10;;;;;;;24.64;38.79;93532.06;4983577;28;20163;-75
2021/08/07 04:09:09;;;;;;;1.00;0.90;;;;;;;24.65;38.88;93535.53;4987455;28;20619;-76
2021/08/07 04:11:35;;;;;;;1.42;1.02;;;;;;;24.58;38.71;93539.78;4984967;28;20038;-76
2021/08/07 04:14:00;;;;;;;1.83;1.20;;;;;;;24.51;38.79;93537.06;4984887;28;20718;-77
2021/08/07 04:16:25;;;;;;;2.15;1.00;;;;;;;24.54;39.22;93549.81;4987011;28;20750;-76
2021/08/07 04:18:51;;;;;;;2.15;1.17;;;;;;;24.51;38.99;93550.56;4986377;28;20088;-77
2021/08/07 04:21:16;;;;;;;1.10;1.00;;;;;;;24.53;38.99;93534.75;4985124;28;20030;-77
2021/08/07 04:23:42;;;;;;;1.55;1.13;;;;;;;24.69;39.32;93552.53;4984917;28;20057;-77
2021/08/07 04:26:07;;;;;;;2.10;1.00;;;;;;;24.39;38.79;93550.13;4982986;28;21195;-76
2021/08/07 04:28:32;;;;;;;1.27;1.00;;;;;;;24.41;39.29;93537.03;4983084;28;20044;-75
2021/08/07 04:30:58;;;;;;;1.35;1.20;;;;;;;24.35;39.44;93544.72;4984455;28;20073;-77
2021/08/07 04:33:23;;;;;;;1.30;1.20;;;;;;;24.21;40.00;93541.19;4985228;28;20046;-75
2021/08/07 04:35:49;;;;;;;1.67;1.33;;;;;;;24.28;40.01;93550.13;4986564;28;20386;-77
2021/08/07 04:38:14;;;;;;;2.80;1.10;;;;;;;24.37;39.46;93547.84;4983102;28;20039;-76
2021/08/07 04:40:39;;;;;;;4.75;1.30;;;;;;;24.53;39.52;93550.94;4982601;28;20033;-75
2021/08/07 04:43:05;;;;;;;1.70;1.50;;;;;;;24.57;39.44;93559.88;4981288;28;20395;-77
2021/08/07 04:45:30;;;;;;;3.97;1.38;;;;;;;24.68;39.56;93562.56;4983454;28;20056;-77
2021/08/07 04:48:01;;;;;;;1.50;1.13;;;;;;;24.71;39.42;93574.56;4983220;28;20037;-77
2021/08/07 04:50:29;;;;;;;1.40;1.25;;;;;;;24.81;39.22;93574.59;4984837;28;20065;-78
2021/08/07 04:52:56;;;;;;;1.23;1.13;;;;;;;24.82;39.13;93578.06;4985698;28;20034;-77
2021/08/07 04:55:23;;;;;;;1.40;1.00;;;;;;;24.69;39.21;93572.22;4984224;28;20075;-77
2021/08/07 04:57:49;;;;;;;2.20;1.23;;;;;;;24.77;39.27;93575.75;4982673;28;20035;-78
2021/08/07 05:00:15;;;;;;;1.23;1.13;;;;;;;24.79;39.00;93584.22;4987082;28;20049;-77
2021/08/07 05:02:40;;;;;;;2.42;1.20;;;;;;;24.42;39.36;93544.78;4986276;28;20053;-77
2021/08/07 05:05:06;;;;;;;1.58;1.10;;;;;;;24.86;38.92;93589.66;4984747;28;20046;-77
2021/08/07 05:07:32;;;;;;;1.15;1.00;;;;;;;24.84;38.97;93583.84;4986352;28;20030;-76
2021/08/07 05:10:00;;;;;;;2.90;1.23;;;;;;;25.01;39.15;93596.66;4983037;28;20654;-76
2021/08/07 05:12:27;;;;;;;4.10;1.08;;;;;;;25.07;38.87;93600.50;4984440;28;20049;-77
2021/08/07 05:14:54;;;;;;;2.63;1.10;;;;;;;25.07;38.63;93603.22;4978789;28;20065;-77
2021/08/07 05:17:19;;;;;;;2.65;1.13;;;;;;;25.25;38.83;93608.66;4987448;28;20523;-76
2021/08/07 05:19:44;;;;;;;1.17;1.08;;;;;;;25.39;38.48;93600.56;4985731;28;20038;-76
2021/08/07 05:22:10;;;;;;;1.33;1.08;;;;;;;25.15;38.48;93563.47;4986423;28;20022;-77
2021/08/07 05:24:35;;;;;;;1.83;1.30;;;;;;;25.35;38.15;93588.97;4986796;28;20173;-75
2021/08/07 05:27:00;;;;;;;1.63;1.48;;;;;;;25.25;38.41;93603.25;4989390;28;20121;-77
2021/08/07 05:29:26;;;;;;;1.60;1.30;;;;;;;25.32;38.66;93604.03;4985186;28;21025;-78
2021/08/07 05:31:51;;;;;;;2.42;1.33;;;;;;;25.34;38.61;93609.84;4986603;28;20041;-76
2021/08/07 05:34:17;;;;;;;2.65;1.63;;;;;;;25.35;38.15;93611.38;4990814;28;20105;-76
2021/08/07 05:36:42;;;;;;;3.15;1.30;;;;;;;25.31;38.46;93613.31;4987040;28;20038;-76
2021/08/07 05:39:07;;;;;;;2.53;1.23;;;;;;;25.29;38.59;93621.03;4985635;28;20038;-77
2021/08/07 05:41:33;;;;;;;1.35;1.08;;;;;;;25.34;38.70;93628.00;4986890;28;20405;-78
2021/08/07 05:43:58;;;;;;;1.30;1.20;;;;;;;25.37;38.63;93625.28;4985824;28;20038;-76
2021/08/07 05:46:24;;;;;;;1.10;1.00;;;;;;;25.45;38.44;93632.25;4988521;28;20530;-75
2021/08/07 05:48:54;;;;;;;2.33;1.13;;;;;;;25.45;38.70;93626.06;4989453;28;20057;-76
2021/08/07 05:51:19;;;;;;;1.63;1.45;;;;;;;25.41;38.10;93636.88;4987674;28;20104;-76
2021/08/07 05:53:45;;;;;;;4.35;1.40;;;;;;;25.39;38.56;93633.03;4990117;28;20569;-77
2021/08/07 05:56:10;;;;;;;2.47;1.10;;;;;;;25.30;38.86;93640.75;4985284;28;20046;-79
2021/08/07 05:58:37;;;;;;;1.45;1.10;;;;;;;25.39;39.05;93638.44;4989365;28;20508;-77
2021/08/07 06:01:04;;;;;;;2.88;1.27;;;;;;;25.44;39.27;93641.53;4989441;28;20497;-77
2021/08/07 06:03:29;;;;;;;3.22;1.02;;;;;;;25.31;38.99;93647.72;4986417;28;20069;-77
2021/08/07 06:05:54;;;;;;;1.63;1.20;;;;;;;25.38;38.83;93648.47;4985126;28;20397;-77
2021/08/07 06:08:20;;;;;;;1.75;1.20;;;;;;;25.33;38.80;93646.16;4989705;28;20042;-77
2021/08/07 06:10:45;;;;;;;1.88;1.20;;;;;;;25.32;38.73;93647.31;4984146;28;20949;-77
2021/08/07 06:13:10;;;;;;;1.63;1.20;;;;;;;25.32;38.65;93641.88;4991716;28;20025;-76
2021/08/07 06:15:36;;;;;;;1.17;1.00;;;;;;;25.15;38.84;93593.97;4987175;28;20089;-77
2021/08/07 06:18:02;;;;;;;3.00;1.35;;;;;;;25.61;38.92;93633.84;4989378;28;20505;-78
2021/08/07 06:20:27;;;;;;;1.73;1.27;;;;;;;25.71;38.77;93624.91;4988514;28;20046;-75
2021/08/07 06:22:53;;;;;;;2.25;1.20;;;;;;;25.75;38.11;93636.53;4984194;28;20034;-77
2021/08/07 06:25:18;;;;;;;3.30;0.90;;;;;;;25.76;38.61;93651.59;4986136;28;20117;-77
2021/08/07 06:27:45;;;;;;;1.33;1.10;;;;;;;25.81;38.12;93649.28;4990341;28;20077;-77
2021/08/07 06:30:10;;;;;;;1.73;1.10;;;;;;;25.80;38.21;93652.41;4981464;28;20176;-77
2021/08/07 06:32:36;;;;;;;2.10;1.15;;;;;;;25.39;38.22;93595.91;4984805;28;20491;-75
2021/08/07 06:35:01;;;;;;;4.50;1.13;;;;;;;24.52;38.34;93494.63;4983305;28;20046;-77
2021/08/07 06:37:27;;;;;;;3.17;1.10;;;;;;;25.64;38.39;93643.88;4986719;28;20116;-77
2021/08/07 06:39:52;;;;;;;3.00;1.00;;;;;;;25.81;38.35;93659.31;4988443;28;20040;-76
2021/08/07 06:42:18;;;;;;;3.03;1.20;;;;;;;25.92;39.59;93665.53;4986359;28;20462;-77
2021/08/07 06:44:43;;;;;;;2.30;1.00;;;;;;;25.95;38.38;93666.69;4983337;28;20050;-76
2021/08/07 06:47:08;;;;;;;2.85;1.23;;;;;;;26.11;38.01;93665.09;4988060;28;20590;-76
2021/08/07 06:49:34;;;;;;;11.38;1.33;;;;;;;26.29;37.29;93663.16;4985152;28;20022;-77
2021/08/07 06:51:59;;;;;;;1.08;0.95;;;;;;;26.44;37.24;93658.47;4983916;28;20549;-77
2021/08/07 06:54:24;;;;;;;1.08;0.90;;;;;;;26.56;37.06;93666.19;4983434;28;20124;-76
2021/08/07 06:56:50;;;;;;;5.18;1.38;;;;;;;26.44;37.17;93668.56;4984149;28;20694;-77
2021/08/07 06:59:16;;;;;;;1.25;1.15;;;;;;;26.39;36.65;93658.13;4985673;28;20108;-77
2021/08/07 07:01:41;;;;;;;3.10;0.90;;;;;;;26.53;37.32;93649.97;4981384;28;20025;-75
2021/08/07 07:04:06;;;;;;;1.45;1.25;;;;;;;26.60;36.68;93666.19;4985481;28;20038;-77
2021/08/07 07:06:32;;;;;;;1.58;1.13;;;;;;;26.78;36.80;93660.72;4985855;28;20616;-77
2021/08/07 07:08:58;;;;;;;0.93;0.90;;;;;;;26.98;36.24;93672.63;4987437;28;20042;-76
2021/08/07 07:11:23;;;;;;;1.67;1.20;;;;;;;27.05;35.82;93665.25;4985240;28;20095;-76
2021/08/07 07:13:48;;;;;;;1.83;0.90;;;;;;;27.03;36.72;93667.56;4984935;28;20022;-76
2021/08/07 07:16:14;;;;;;;2.90;1.13;;;;;;;27.17;36.17;93657.84;4985344;28;20071;-77
2021/08/07 07:18:39;;;;;;;1.05;0.88;;;;;;;27.24;34.38;93655.84;4983167;28;20695;-77
2021/08/07 07:21:06;;;;;;;1.17;0.98;;;;;;;27.42;35.01;93669.28;4983956;28;20038;-76
2021/08/07 07:23:31;;;;;;;1.52;0.98;;;;;;;27.46;35.71;93651.84;4986126;28;20088;-77
2021/08/07 07:25:57;;;;;;;2.42;1.05;;;;;;;27.50;35.40;93658.03;4983406;28;20050;-77
2021/08/07 07:28:23;;;;;;;1.35;0.77;;;;;;;27.62;34.80;93662.19;4984933;28;20092;-77
2021/08/07 07:30:48;;;;;;;1.10;0.90;;;;;;;27.64;34.73;93654.44;4982846;28;20038;-77
2021/08/07 07:33:14;;;;;;;1.38;0.95;;;;;;;27.07;32.50;93570.69;4985779;28;20062;-77
2021/08/07 07:35:40;;;;;;;1.73;0.77;;;;;;;27.71;31.53;93673.38;4990470;28;20505;-75
2021/08/07 07:38:06;;;;;;;1.77;0.88;;;;;;;27.38;32.34;93663.09;4987587;28;20915;-77
2021/08/07 07:40:32;;;;;;;0.68;0.68;;;;;;;27.44;31.95;93665.03;4989462;28;20034;-77
2021/08/07 07:42:57;;;;;;;0.90;0.80;;;;;;;27.53;32.30;93667.31;5000338;28;20041;-77
2021/08/07 07:45:23;;;;;;;2.13;0.60;;;;;;;27.58;32.10;93664.16;4986008;28;20137;-77
2021/08/07 07:47:48;;;;;;;1.23;0.60;;;;;;;27.64;32.36;93657.16;4985175;28;20041;-77
2021/08/07 07:50:14;;;;;;;0.80;0.80;;;;;;;27.67;31.80;93667.19;4985699;28;20034;-76
2021/08/07 07:52:39;;;;;;;1.05;0.65;;;;;;;27.73;32.20;93670.25;4983758;28;20061;-77
2021/08/07 07:55:06;;;;;;;1.48;0.80;;;;;;;27.69;32.43;93678.44;4984170;28;20485;-77
2021/08/07 07:57:31;;;;;;;0.82;0.70;;;;;;;27.77;32.11;93685.34;4986107;28;20647;-77
2021/08/07 07:59:56;;;;;;;1.60;0.80;;;;;;;27.88;31.77;93677.91;4985658;28;20045;-78
2021/08/07 08:02:22;;;;;;;1.30;0.80;;;;;;;27.81;31.67;93680.66;4988085;28;20727;-76
2021/08/07 08:04:47;;;;;;;2.65;0.93;;;;;;;27.95;32.89;93683.25;4985685;28;20038;-77
2021/08/07 08:07:13;;;;;;;2.13;0.95;;;;;;;27.93;31.73;93674.75;4988574;28;20580;-77
2021/08/07 08:09:38;;;;;;;1.48;1.00;;;;;;;27.80;31.93;93684.56;4981246;28;20772;-77
2021/08/07 08:12:04;;;;;;;2.58;0.80;;;;;;;27.91;32.36;93693.38;4984778;28;20142;-77
2021/08/07 08:14:30;;;;;;;1.77;0.90;;;;;;;27.65;32.38;93702.13;4986213;28;20033;-76
2021/08/07 08:16:56;;;;;;;0.85;0.70;;;;;;;27.61;31.89;93695.97;4983257;28;20053;-78
2021/08/07 08:19:21;;;;;;;2.10;1.00;;;;;;;27.30;32.03;93697.66;4987005;28;20025;-75
2021/08/07 08:21:47;;;;;;;2.22;0.93;;;;;;;27.36;33.47;93701.50;4985060;28;20038;-77
2021/08/07 08:24:12;;;;;;;2.22;0.95;;;;;;;27.61;32.14;93695.19;4979657;28;20408;-76
2021/08/07 08:26:41;;;;;;;2.88;1.10;;;;;;;27.74;30.98;93693.53;4986649;28;20119;-78
2021/08/07 08:29:07;;;;;;;3.42;1.10;;;;;;;27.61;33.03;93682.41;4981619;28;20073;-77
2021/08/07 08:31:33;;;;;;;1.80;0.88;;;;;;;27.83;31.94;93675.63;4986008;28;20052;-77
2021/08/07 08:33:58;;;;;;;1.02;0.90;;;;;;;28.14;31.14;93689.38;4980931;28;20050;-77
2021/08/07 08:36:24;;;;;;;2.38;0.90;;;;;;;28.12;31.12;93692.47;4981206;28;20058;-77
2021/08/07 08:38:49;;;;;;;1.30;0.88;;;;;;;28.08;30.75;93701.81;4986536;28;20382;-76
2021/08/07 08:41:15;;;;;;;1.52;0.98;;;;;;;28.13;31.46;93696.75;4982506;28;20353;-76
2021/08/07 08:43:43;;;;;;;2.05;0.80;;;;;;;28.12;32.35;93697.13;4985519;28;20676;-76
2021/08/07 08:46:09;;;;;;;1.42;0.95;;;;;;;27.98;31.75;93698.78;4984281;28;20559;-77
2021/08/07 08:48:41;;;;;;;1.20;0.90;;;;;;;28.00;31.96;93695.66;4984293;28;20042;-75
2021/08/07 08:51:08;;;;;;;0.98;0.90;;;;;;;28.21;32.63;93695.50;4985209;28;20038;-79
2021/08/07 08:53:40;;;;;;;1.42;0.90;;;;;;;28.27;31.54;93693.13;4984970;28;20514;-76
2021/08/07 08:56:07;;;;;;;2.17;0.90;;;;;;;28.18;32.08;93700.97;4987928;28;20372;-77
2021/08/07 08:58:35;;;;;;;1.98;0.90;;;;;;;28.14;32.23;93684.69;4989308;28;20041;-75
2021/08/07 09:01:03;;;;;;;1.88;1.00;;;;;;;28.36;32.15;93690.69;4987385;28;20064;-75
2021/08/07 09:03:28;;;;;;;1.38;1.00;;;;;;;28.38;31.31;93685.63;4991060;28;20069;-76
2021/08/07 09:05:54;;;;;;;1.50;1.02;;;;;;;28.50;31.52;93690.53;4988338;28;20133;-76
2021/08/07 09:08:19;;;;;;;5.05;1.15;;;;;;;28.30;31.23;93689.59;4988027;28;20038;-77
2021/08/07 09:10:45;;;;;;;1.35;0.90;;;;;;;28.18;31.58;93679.22;4990105;28;20060;-77
2021/08/07 09:13:18;;;;;;;2.45;1.58;;;;;;;28.37;32.02;93681.38;4985776;28;20061;-78
2021/08/07 09:15:44;;;;;;;3.25;1.30;;;;;;;28.68;31.36;93696.59;4985340;28;20587;-78
2021/08/07 09:18:10;;;;;;;2.38;1.50;;;;;;;28.72;31.13;93700.06;4988581;28;20599;-78
2021/08/07 09:20:36;;;;;;;1.20;1.00;;;;;;;28.60;30.67;93695.09;4987859;28;20112;-77
2021/08/07 09:23:02;;;;;;;4.72;1.42;;;;;;;28.64;30.86;93706.72;4989893;28;20401;-77
2021/08/07 09:25:33;;;;;;;1.10;0.90;;;;;;;28.36;31.00;93707.00;4983818;28;20037;-77
2021/08/07 09:27:59;;;;;;;0.80;0.80;;;;;;;28.53;30.95;93710.72;4982103;28;20606;-78
2021/08/07 09:30:28;;;;;;;1.33;0.93;;;;;;;28.67;30.10;93703.19;4990169;28;20087;-76
2021/08/07 09:32:56;;;;;;;3.70;1.20;;;;;;;29.02;30.94;93704.00;4988674;28;20076;-77
2021/08/07 09:35:24;;;;;;;1.25;0.85;;;;;;;29.19;29.31;93694.81;4986960;28;20066;-75
2021/08/07 09:38:18;;;;;;;1.50;0.93;;;;;;;28.87;29.97;93692.50;4986012;28;20052;-77
2021/08/07 09:40:59;;;;;;;2.20;1.08;;;;;;;28.79;30.56;93713.56;4987300;28;20029;-77
2021/08/07 09:43:26;;;;;;;4.15;1.00;;;;;;;29.08;30.61;93696.91;4988789;28;20487;-79
2021/08/07 09:46:08;;;;;;;1.17;0.90;;;;;;;29.22;29.86;93696.75;4987573;28;20132;-77
2021/08/07 09:48:45;;;;;;;1.38;1.13;;;;;;;29.25;29.97;93712.25;4988312;28;20118;-78
2021/08/07 09:51:30;;;;;;;0.75;0.70;;;;;;;29.02;29.66;93669.41;4986687;28;20504;-77
2021/08/07 09:54:12;;;;;;;1.15;0.90;;;;;;;29.28;30.41;93703.25;4989553;28;20052;-77
2021/08/07 09:57:04;;;;;;;0.82;0.73;;;;;;;29.37;29.84;93709.00;4990325;28;20044;-77
2021/08/07 09:59:30;;;;;;;1.42;0.85;;;;;;;29.27;30.85;93709.91;4986635;28;20042;-78
2021/08/07 10:01:57;;;;;;;1.20;1.10;;;;;;;29.01;29.89;93680.69;4985808;28;20038;-77
2021/08/07 10:04:23;;;;;;;4.32;0.77;;;;;;;29.11;29.79;93683.28;4984383;28;20121;-78
2021/08/07 10:06:51;;;;;;;2.10;0.80;;;;;;;29.00;31.05;93706.34;4988227;28;20847;-77
2021/08/07 10:09:33;;;;;;;1.40;0.95;;;;;;;29.28;29.89;93709.47;4989733;28;20046;-77
2021/08/07 10:12:03;;;;;;;1.13;0.90;;;;;;;29.33;29.01;93708.28;5000205;28;20031;-77
2021/08/07 10:14:29;;;;;;;1.92;0.90;;;;;;;29.21;28.66;93703.38;4989654;28;20041;-78
2021/08/07 10:16:55;;;;;;;2.90;0.93;;;;;;;29.05;29.45;93703.94;4986868;28;20030;-77
2021/08/07 10:19:21;;;;;;;3.25;1.00;;;;;;;28.83;30.05;93686.34;4987903;28;20092;-78
2021/08/07 10:21:51;;;;;;;1.88;1.10;;;;;;;29.10;29.93;93698.06;4988564;28;20503;-78
2021/08/07 10:24:18;;;;;;;1.60;0.90;;;;;;;29.16;29.86;93695.66;4984333;28;20042;-78
2021/08/07 10:26:45;;;;;;;1.08;0.88;;;;;;;29.26;30.07;93700.97;4987466;28;20076;-77
2021/08/07 10:29:13;;;;;;;2.25;0.82;;;;;;;29.53;29.76;93692.84;4985893;28;20409;-78
2021/08/07 10:31:39;;;;;;;1.00;0.90;;;;;;;29.58;29.14;93667.88;4985555;28;20593;-78
2021/08/07 10:34:08;;;;;;;1.00;0.88;;;;;;;29.57;28.83;93690.06;4985136;28;21040;-78
2021/08/07 10:36:35;;;;;;;1.95;0.80;;;;;;;29.56;29.35;93694.75;4985133;28;20131;-78
2021/08/07 10:39:05;;;;;;;1.10;0.82;;;;;;;29.62;28.57;93698.53;4982246;28;20489;-79
2021/08/07 10:41:31;;;;;;;1.58;0.80;;;;;;;29.36;28.99;93653.03;4987539;28;20068;-77
2021/08/07 10:44:00;;;;;;;4.78;0.95;;;;;;;29.60;30.58;93684.56;4985383;28;20640;-78
2021/08/07 10:46:27;;;;;;;1.00;0.90;;;;;;;29.68;29.08;93671.59;4986035;28;20033;-78
2021/08/07 10:48:53;;;;;;;10.00;0.90;;;;;;;29.50;29.24;93674.59;4986102;28;20039;-77
2021/08/07 10:51:18;;;;;;;1.15;1.00;;;;;;;29.76;29.71;93664.88;4985112;28;20532;-77
2021/08/07 10:53:45;;;;;;;2.35;0.80;;;;;;;29.86;29.20;93663.19;4985883;28;20161;-77
2021/08/07 10:56:10;;;;;;;2.00;0.80;;;;;;;29.99;28.82;93664.16;4987634;28;20771;-77
2021/08/07 10:58:43;;;;;;;1.45;0.80;;;;;;;30.08;28.77;93667.09;4978301;28;20455;-80
2021/08/07 11:01:24;;;;;;;1.25;0.80;;;;;;;29.90;28.22;93653.78;4982274;28;20046;-78
2021/08/07 11:04:02;;;;;;;2.05;0.80;;;;;;;30.01;28.97;93648.91;4984177;28;20074;-79
2021/08/07 11:06:52;;;;;;;3.00;1.00;;;;;;;29.96;28.07;93651.34;4983293;28;20046;-79
2021/08/07 11:09:17;;;;;;;1.60;0.90;;;;;;;29.87;28.81;93649.13;4984388;28;20049;-78
2021/08/07 11:11:43;;;;;;;1.05;0.90;;;;;;;29.66;28.80;93650.22;4985783;28;20042;-78
2021/08/07 11:14:24;;;;;;;1.77;0.77;;;;;;;29.70;29.67;93645.50;4983444;28;20049;-79
2021/08/07 11:17:05;;;;;;;1.20;0.80;;;;;;;30.09;28.99;93644.13;4982139;28;20058;-78
2021/08/07 11:20:06;;;;;;;3.92;0.70;;;;;;;30.22;28.14;93636.09;4985924;28;20022;-78
2021/08/07 11:22:32;;;;;;;0.80;0.80;;;;;;;30.21;27.36;93635.34;4983502;28;20560;-77
2021/08/07 11:24:58;;;;;;;0.80;0.77;;;;;;;30.34;27.50;93627.31;4983848;28;20049;-77
2021/08/07 11:27:52;;;;;;;0.60;0.60;;;;;;;30.31;27.48;93633.59;4984877;28;20414;-78
2021/08/07 11:30:22;;;;;;;1.97;0.97;;;;;;;30.33;27.82;93637.47;4985886;28;20130;-78
2021/08/07 11:32:56;;;;;;;1.00;0.77;;;;;;;30.38;26.66;93639.72;4985475;28;20046;-77
2021/08/07 11:35:35;;;;;;;2.30;0.73;;;;;;;30.30;26.66;93635.56;4986669;28;20038;-78